sensor_id;sensor_type;location;lat;lon;timestamp;temperature;humidity
69938;DHT22;57248;47.320;15.998;2023-11-22T00:02:34;1.13;97.69
69938;DHT22;57248;47.320;15.998;2023-11-22T00:05:06;1.05;97.61
69938;DHT22;57248;47.320;15.998;2023-11-22T00:07:38;0.97;97.16
69938;DHT22;57248;47.320;15.998;2023-11-22T00:10:10;0.97;97.54
69938;DHT22;57248;47.320;15.998;2023-11-22T00:12:42;0.97;97.60
69938;DHT22;57248;47.320;15.998;2023-11-22T00:15:14;0.93;97.23
69938;DHT22;57248;47.320;15.998;2023-11-22T00:17:50;0.84;98.15
69938;DHT22;57248;47.320;15.998;2023-11-22T00:20:29;0.91;98.50
69938;DHT22;57248;47.320;15.998;2023-11-22T00:23:02;0.87;98.02
69938;DHT22;57248;47.320;15.998;2023-11-22T00:25:35;0.88;98.19
69938;DHT22;57248;47.320;15.998;2023-11-22T00:28:07;0.88;98.75
69938;DHT22;57248;47.320;15.998;2023-11-22T00:30:41;0.74;98.15
69938;DHT22;57248;47.320;15.998;2023-11-22T00:33:15;0.76;98.12
69938;DHT22;57248;47.320;15.998;2023-11-22T00:35:47;0.73;97.99
69938;DHT22;57248;47.320;15.998;2023-11-22T00:38:19;0.81;98.44
69938;DHT22;57248;47.320;15.998;2023-11-22T00:40:51;0.74;98.07
69938;DHT22;57248;47.320;15.998;2023-11-22T00:43:23;0.73;98.26
69938;DHT22;57248;47.320;15.998;2023-11-22T00:45:57;0.72;98.20
69938;DHT22;57248;47.320;15.998;2023-11-22T00:48:29;0.76;98.26
69938;DHT22;57248;47.320;15.998;2023-11-22T00:51:01;0.76;98.29
69938;DHT22;57248;47.320;15.998;2023-11-22T00:53:39;0.67;98.56
69938;DHT22;57248;47.320;15.998;2023-11-22T00:56:11;0.76;98.56
69938;DHT22;57248;47.320;15.998;2023-11-22T00:58:43;0.81;98.95
69938;DHT22;57248;47.320;15.998;2023-11-22T01:01:18;0.70;98.75
69938;DHT22;57248;47.320;15.998;2023-11-22T01:03:44;0.76;98.86
69938;DHT22;57248;47.320;15.998;2023-11-22T01:06:17;0.76;98.80
69938;DHT22;57248;47.320;15.998;2023-11-22T01:08:52;0.70;98.94
69938;DHT22;57248;47.320;15.998;2023-11-22T01:11:24;0.72;98.67
69938;DHT22;57248;47.320;15.998;2023-11-22T01:13:56;0.80;98.93
69938;DHT22;57248;47.320;15.998;2023-11-22T01:16:28;0.90;99.11
69938;DHT22;57248;47.320;15.998;2023-11-22T01:18:53;0.83;98.76
69938;DHT22;57248;47.320;15.998;2023-11-22T01:21:39;0.87;98.73
69938;DHT22;57248;47.320;15.998;2023-11-22T01:24:12;0.98;98.70
69938;DHT22;57248;47.320;15.998;2023-11-22T01:26:44;0.88;98.39
69938;DHT22;57248;47.320;15.998;2023-11-22T01:29:16;0.97;98.71
69938;DHT22;57248;47.320;15.998;2023-11-22T01:31:48;0.97;98.93
69938;DHT22;57248;47.320;15.998;2023-11-22T01:34:21;1.03;99.17
69938;DHT22;57248;47.320;15.998;2023-11-22T01:36:53;1.14;99.04
69938;DHT22;57248;47.320;15.998;2023-11-22T01:39:25;1.05;99.08
69938;DHT22;57248;47.320;15.998;2023-11-22T01:41:58;0.95;98.87
69938;DHT22;57248;47.320;15.998;2023-11-22T01:44:30;1.03;98.95
69938;DHT22;57248;47.320;15.998;2023-11-22T01:47:02;1.04;99.15
69938;DHT22;57248;47.320;15.998;2023-11-22T01:49:36;1.15;99.22
69938;DHT22;57248;47.320;15.998;2023-11-22T01:52:08;1.20;99.44
69938;DHT22;57248;47.320;15.998;2023-11-22T01:54:41;1.15;99.31
69938;DHT22;57248;47.320;15.998;2023-11-22T01:57:15;1.22;99.09
69938;DHT22;57248;47.320;15.998;2023-11-22T01:59:41;1.24;99.49
69938;DHT22;57248;47.320;15.998;2023-11-22T02:02:14;1.35;99.45
69938;DHT22;57248;47.320;15.998;2023-11-22T02:04:46;1.32;99.39
69938;DHT22;57248;47.320;15.998;2023-11-22T02:07:18;1.35;99.58
69938;DHT22;57248;47.320;15.998;2023-11-22T02:09:50;1.34;99.42
69938;DHT22;57248;47.320;15.998;2023-11-22T02:12:22;1.48;99.92
69938;DHT22;57248;47.320;15.998;2023-11-22T02:14:54;1.35;99.47
69938;DHT22;57248;47.320;15.998;2023-11-22T02:17:26;1.34;99.30
69938;DHT22;57248;47.320;15.998;2023-11-22T02:19:58;1.39;99.27
69938;DHT22;57248;47.320;15.998;2023-11-22T02:22:48;1.36;99.41
69938;DHT22;57248;47.320;15.998;2023-11-22T02:25:20;1.36;99.49
69938;DHT22;57248;47.320;15.998;2023-11-22T02:27:52;1.48;99.60
69938;DHT22;57248;47.320;15.998;2023-11-22T02:30:24;1.48;99.49
69938;DHT22;57248;47.320;15.998;2023-11-22T02:32:51;1.52;99.50
69938;DHT22;57248;47.320;15.998;2023-11-22T02:35:23;1.59;99.54
69938;DHT22;57248;47.320;15.998;2023-11-22T02:37:49;1.58;99.65
69938;DHT22;57248;47.320;15.998;2023-11-22T02:40:21;1.62;99.62
69938;DHT22;57248;47.320;15.998;2023-11-22T02:42:54;1.60;99.62
69938;DHT22;57248;47.320;15.998;2023-11-22T02:45:28;1.60;99.58
69938;DHT22;57248;47.320;15.998;2023-11-22T02:48:01;1.63;99.74
69938;DHT22;57248;47.320;15.998;2023-11-22T02:50:36;1.62;99.74
69938;DHT22;57248;47.320;15.998;2023-11-22T02:53:11;1.63;99.69
69938;DHT22;57248;47.320;15.998;2023-11-22T02:55:43;1.70;99.75
69938;DHT22;57248;47.320;15.998;2023-11-22T02:58:15;1.74;99.71
69938;DHT22;57248;47.320;15.998;2023-11-22T03:00:48;1.76;99.55
69938;DHT22;57248;47.320;15.998;2023-11-22T03:03:21;1.80;99.54
69938;DHT22;57248;47.320;15.998;2023-11-22T03:05:53;1.87;99.62
69938;DHT22;57248;47.320;15.998;2023-11-22T03:08:25;1.99;99.93
69938;DHT22;57248;47.320;15.998;2023-11-22T03:10:57;2.03;99.93
69938;DHT22;57248;47.320;15.998;2023-11-22T03:13:29;2.09;99.96
69938;DHT22;57248;47.320;15.998;2023-11-22T03:16:01;2.11;99.92
69938;DHT22;57248;47.320;15.998;2023-11-22T03:18:28;2.14;99.89
69938;DHT22;57248;47.320;15.998;2023-11-22T03:21:01;2.14;99.89
69938;DHT22;57248;47.320;15.998;2023-11-22T03:23:33;2.28;99.91
69938;DHT22;57248;47.320;15.998;2023-11-22T03:26:05;2.25;99.97
69938;DHT22;57248;47.320;15.998;2023-11-22T03:28:38;2.17;99.70
69938;DHT22;57248;47.320;15.998;2023-11-22T03:31:10;2.10;99.72
69938;DHT22;57248;47.320;15.998;2023-11-22T03:33:42;2.03;99.68
69938;DHT22;57248;47.320;15.998;2023-11-22T03:36:14;2.03;99.64
69938;DHT22;57248;47.320;15.998;2023-11-22T03:38:46;2.02;99.53
69938;DHT22;57248;47.320;15.998;2023-11-22T03:41:18;2.07;99.66
69938;DHT22;57248;47.320;15.998;2023-11-22T03:43:50;2.10;99.71
69938;DHT22;57248;47.320;15.998;2023-11-22T03:46:25;2.18;99.92
69938;DHT22;57248;47.320;15.998;2023-11-22T03:48:57;2.25;99.96
69938;DHT22;57248;47.320;15.998;2023-11-22T03:51:22;2.89;99.99
69938;DHT22;57248;47.320;15.998;2023-11-22T03:53:54;3.57;99.97
69938;DHT22;57248;47.320;15.998;2023-11-22T03:56:26;3.74;99.48
69938;DHT22;57248;47.320;15.998;2023-11-22T03:58:58;3.81;98.97
69938;DHT22;57248;47.320;15.998;2023-11-22T04:01:30;4.33;97.70
69938;DHT22;57248;47.320;15.998;2023-11-22T04:04:03;4.57;97.02
69938;DHT22;57248;47.320;15.998;2023-11-22T04:06:35;4.53;96.67
69938;DHT22;57248;47.320;15.998;2023-11-22T04:09:07;4.54;96.69
69938;DHT22;57248;47.320;15.998;2023-11-22T04:11:40;4.74;96.60
69938;DHT22;57248;47.320;15.998;2023-11-22T04:14:12;4.74;96.28
69938;DHT22;57248;47.320;15.998;2023-11-22T04:16:44;4.57;96.68
69938;DHT22;57248;47.320;15.998;2023-11-22T04:19:16;4.75;96.12
69938;DHT22;57248;47.320;15.998;2023-11-22T04:21:55;4.80;96.59
69938;DHT22;57248;47.320;15.998;2023-11-22T04:24:20;4.68;96.67
69938;DHT22;57248;47.320;15.998;2023-11-22T04:26:53;4.84;96.16
69938;DHT22;57248;47.320;15.998;2023-11-22T04:29:25;4.89;96.09
69938;DHT22;57248;47.320;15.998;2023-11-22T04:31:57;4.84;95.95
69938;DHT22;57248;47.320;15.998;2023-11-22T04:34:29;4.71;96.64
69938;DHT22;57248;47.320;15.998;2023-11-22T04:37:02;4.94;96.36
69938;DHT22;57248;47.320;15.998;2023-11-22T04:39:34;4.89;96.35
69938;DHT22;57248;47.320;15.998;2023-11-22T04:42:06;4.88;96.20
69938;DHT22;57248;47.320;15.998;2023-11-22T04:44:38;4.96;96.50
69938;DHT22;57248;47.320;15.998;2023-11-22T04:47:10;4.80;96.52
69938;DHT22;57248;47.320;15.998;2023-11-22T04:49:42;4.67;96.96
69938;DHT22;57248;47.320;15.998;2023-11-22T04:52:14;4.87;97.04
69938;DHT22;57248;47.320;15.998;2023-11-22T04:54:47;4.91;96.99
69938;DHT22;57248;47.320;15.998;2023-11-22T04:57:19;4.96;96.60
69938;DHT22;57248;47.320;15.998;2023-11-22T04:59:52;5.08;96.26
69938;DHT22;57248;47.320;15.998;2023-11-22T05:02:25;5.14;95.88
69938;DHT22;57248;47.320;15.998;2023-11-22T05:04:58;5.19;95.32
69938;DHT22;57248;47.320;15.998;2023-11-22T05:07:37;5.14;95.30
69938;DHT22;57248;47.320;15.998;2023-11-22T05:10:04;5.25;94.83
69938;DHT22;57248;47.320;15.998;2023-11-22T05:12:38;5.14;95.08
69938;DHT22;57248;47.320;15.998;2023-11-22T05:15:10;5.04;95.37
69938;DHT22;57248;47.320;15.998;2023-11-22T05:17:42;5.01;94.97
69938;DHT22;57248;47.320;15.998;2023-11-22T05:20:22;4.87;95.39
69938;DHT22;57248;47.320;15.998;2023-11-22T05:22:54;4.88;94.91
69938;DHT22;57248;47.320;15.998;2023-11-22T05:25:26;4.85;94.94
69938;DHT22;57248;47.320;15.998;2023-11-22T05:27:58;4.78;95.10
69938;DHT22;57248;47.320;15.998;2023-11-22T05:30:24;4.70;94.85
69938;DHT22;57248;47.320;15.998;2023-11-22T05:32:56;4.75;94.64
69938;DHT22;57248;47.320;15.998;2023-11-22T05:35:29;4.73;94.75
69938;DHT22;57248;47.320;15.998;2023-11-22T05:38:01;4.70;94.66
69938;DHT22;57248;47.320;15.998;2023-11-22T05:40:27;4.63;94.81
69938;DHT22;57248;47.320;15.998;2023-11-22T05:42:59;4.63;94.60
69938;DHT22;57248;47.320;15.998;2023-11-22T05:45:31;4.63;94.61
69938;DHT22;57248;47.320;15.998;2023-11-22T05:48:03;4.80;93.15
69938;DHT22;57248;47.320;15.998;2023-11-22T05:50:36;4.67;93.75
69938;DHT22;57248;47.320;15.998;2023-11-22T05:53:08;4.75;93.22
69938;DHT22;57248;47.320;15.998;2023-11-22T05:55:41;4.71;93.03
69938;DHT22;57248;47.320;15.998;2023-11-22T05:58:20;4.77;92.55
69938;DHT22;57248;47.320;15.998;2023-11-22T06:00:53;4.65;93.03
69938;DHT22;57248;47.320;15.998;2023-11-22T06:03:25;4.60;93.15
69938;DHT22;57248;47.320;15.998;2023-11-22T06:05:58;4.67;92.07
69938;DHT22;57248;47.320;15.998;2023-11-22T06:08:30;4.65;92.21
69938;DHT22;57248;47.320;15.998;2023-11-22T06:11:02;4.60;92.31
69938;DHT22;57248;47.320;15.998;2023-11-22T06:13:35;4.70;91.48
69938;DHT22;57248;47.320;15.998;2023-11-22T06:16:08;4.65;91.07
69938;DHT22;57248;47.320;15.998;2023-11-22T06:18:41;4.70;90.90
69938;DHT22;57248;47.320;15.998;2023-11-22T06:21:20;4.71;90.46
69938;DHT22;57248;47.320;15.998;2023-11-22T06:23:53;4.64;90.40
69938;DHT22;57248;47.320;15.998;2023-11-22T06:26:27;4.50;90.75
69938;DHT22;57248;47.320;15.998;2023-11-22T06:29:00;4.52;90.23
69938;DHT22;57248;47.320;15.998;2023-11-22T06:31:33;4.57;89.85
69938;DHT22;57248;47.320;15.998;2023-11-22T06:34:05;4.57;89.83
69938;DHT22;57248;47.320;15.998;2023-11-22T06:36:37;4.47;90.11
69938;DHT22;57248;47.320;15.998;2023-11-22T06:39:09;4.54;89.50
69938;DHT22;57248;47.320;15.998;2023-11-22T06:41:41;4.47;89.72
69938;DHT22;57248;47.320;15.998;2023-11-22T06:44:14;4.53;89.46
69938;DHT22;57248;47.320;15.998;2023-11-22T06:46:46;4.46;89.68
69938;DHT22;57248;47.320;15.998;2023-11-22T06:49:18;4.44;89.66
69938;DHT22;57248;47.320;15.998;2023-11-22T06:51:43;4.42;89.29
69938;DHT22;57248;47.320;15.998;2023-11-22T06:54:16;4.56;89.01
69938;DHT22;57248;47.320;15.998;2023-11-22T06:56:50;4.81;88.51
69938;DHT22;57248;47.320;15.998;2023-11-22T06:59:24;4.99;87.89
69938;DHT22;57248;47.320;15.998;2023-11-22T07:01:56;5.22;86.50
69938;DHT22;57248;47.320;15.998;2023-11-22T07:04:29;5.43;85.86
69938;DHT22;57248;47.320;15.998;2023-11-22T07:07:01;5.63;86.32
69938;DHT22;57248;47.320;15.998;2023-11-22T07:09:36;5.74;85.54
69938;DHT22;57248;47.320;15.998;2023-11-22T07:12:08;5.84;84.57
69938;DHT22;57248;47.320;15.998;2023-11-22T07:14:40;5.90;84.35
69938;DHT22;57248;47.320;15.998;2023-11-22T07:17:12;5.83;84.60
69938;DHT22;57248;47.320;15.998;2023-11-22T07:19:45;5.80;84.91
69938;DHT22;57248;47.320;15.998;2023-11-22T07:22:20;5.81;84.27
69938;DHT22;57248;47.320;15.998;2023-11-22T07:25:00;6.10;83.57
69938;DHT22;57248;47.320;15.998;2023-11-22T07:27:34;6.29;84.16
69938;DHT22;57248;47.320;15.998;2023-11-22T07:30:06;6.32;83.23
69938;DHT22;57248;47.320;15.998;2023-11-22T07:32:40;6.41;82.74
69938;DHT22;57248;47.320;15.998;2023-11-22T07:35:12;6.52;82.49
69938;DHT22;57248;47.320;15.998;2023-11-22T07:37:44;6.66;81.32
69938;DHT22;57248;47.320;15.998;2023-11-22T07:40:16;6.71;82.04
69938;DHT22;57248;47.320;15.998;2023-11-22T07:42:49;6.79;81.09
69938;DHT22;57248;47.320;15.998;2023-11-22T07:45:14;6.82;80.74
69938;DHT22;57248;47.320;15.998;2023-11-22T07:47:47;6.93;79.99
69938;DHT22;57248;47.320;15.998;2023-11-22T07:50:19;7.35;80.23
69938;DHT22;57248;47.320;15.998;2023-11-22T07:52:51;7.17;79.61
69938;DHT22;57248;47.320;15.998;2023-11-22T07:55:16;7.42;78.82
69938;DHT22;57248;47.320;15.998;2023-11-22T07:57:50;7.32;78.74
69938;DHT22;57248;47.320;15.998;2023-11-22T08:00:17;7.21;79.54
69938;DHT22;57248;47.320;15.998;2023-11-22T08:02:51;7.27;78.74
69938;DHT22;57248;47.320;15.998;2023-11-22T08:05:19;7.71;78.64
69938;DHT22;57248;47.320;15.998;2023-11-22T08:07:55;8.02;78.01
69938;DHT22;57248;47.320;15.998;2023-11-22T08:10:20;8.82;77.00
69938;DHT22;57248;47.320;15.998;2023-11-22T08:13:08;8.23;75.25
69938;DHT22;57248;47.320;15.998;2023-11-22T08:15:40;8.45;75.63
69938;DHT22;57248;47.320;15.998;2023-11-22T08:18:20;8.55;75.96
69938;DHT22;57248;47.320;15.998;2023-11-22T08:20:54;8.69;75.37
69938;DHT22;57248;47.320;15.998;2023-11-22T08:23:34;9.44;73.08
69938;DHT22;57248;47.320;15.998;2023-11-22T08:26:06;9.73;70.34
69938;DHT22;57248;47.320;15.998;2023-11-22T08:28:40;10.38;70.10
69938;DHT22;57248;47.320;15.998;2023-11-22T08:31:12;11.22;67.96
69938;DHT22;57248;47.320;15.998;2023-11-22T08:33:44;10.79;66.22
69938;DHT22;57248;47.320;15.998;2023-11-22T08:36:16;11.34;66.62
69938;DHT22;57248;47.320;15.998;2023-11-22T08:38:48;11.82;63.98
69938;DHT22;57248;47.320;15.998;2023-11-22T08:41:20;12.29;63.44
69938;DHT22;57248;47.320;15.998;2023-11-22T08:43:53;12.67;62.46
69938;DHT22;57248;47.320;15.998;2023-11-22T08:46:25;12.89;62.30
69938;DHT22;57248;47.320;15.998;2023-11-22T08:48:57;13.26;60.47
69938;DHT22;57248;47.320;15.998;2023-11-22T08:51:30;12.81;59.14
69938;DHT22;57248;47.320;15.998;2023-11-22T08:54:02;13.47;60.91
69938;DHT22;57248;47.320;15.998;2023-11-22T08:56:35;13.56;58.39
69938;DHT22;57248;47.320;15.998;2023-11-22T08:59:07;14.00;58.63
69938;DHT22;57248;47.320;15.998;2023-11-22T09:01:40;14.18;58.32
69938;DHT22;57248;47.320;15.998;2023-11-22T09:04:12;13.40;59.08
69938;DHT22;57248;47.320;15.998;2023-11-22T09:06:46;13.33;58.46
69938;DHT22;57248;47.320;15.998;2023-11-22T09:09:13;13.40;57.91
69938;DHT22;57248;47.320;15.998;2023-11-22T09:11:47;14.11;57.87
69938;DHT22;57248;47.320;15.998;2023-11-22T09:14:19;13.63;58.43
69938;DHT22;57248;47.320;15.998;2023-11-22T09:16:52;13.94;57.41
69938;DHT22;57248;47.320;15.998;2023-11-22T09:19:27;13.29;57.06
69938;DHT22;57248;47.320;15.998;2023-11-22T09:21:59;13.98;56.02
69938;DHT22;57248;47.320;15.998;2023-11-22T09:24:38;14.30;54.94
69938;DHT22;57248;47.320;15.998;2023-11-22T09:27:10;13.80;57.46
69938;DHT22;57248;47.320;15.998;2023-11-22T09:29:47;13.84;56.36
69938;DHT22;57248;47.320;15.998;2023-11-22T09:32:20;15.24;55.39
69938;DHT22;57248;47.320;15.998;2023-11-22T09:34:52;14.33;54.89
69938;DHT22;57248;47.320;15.998;2023-11-22T09:37:29;13.06;56.94
69938;DHT22;57248;47.320;15.998;2023-11-22T09:40:01;14.02;55.79
69938;DHT22;57248;47.320;15.998;2023-11-22T09:42:33;13.49;55.52
69938;DHT22;57248;47.320;15.998;2023-11-22T09:45:06;13.67;56.28
69938;DHT22;57248;47.320;15.998;2023-11-22T09:47:38;14.19;55.12
69938;DHT22;57248;47.320;15.998;2023-11-22T09:50:20;15.11;52.71
69938;DHT22;57248;47.320;15.998;2023-11-22T09:52:55;14.35;53.99
69938;DHT22;57248;47.320;15.998;2023-11-22T09:55:31;13.82;55.20
69938;DHT22;57248;47.320;15.998;2023-11-22T09:58:04;14.48;53.67
69938;DHT22;57248;47.320;15.998;2023-11-22T10:00:38;14.26;54.41
69938;DHT22;57248;47.320;15.998;2023-11-22T10:03:12;14.30;53.29
69938;DHT22;57248;47.320;15.998;2023-11-22T10:05:46;14.32;54.50
69938;DHT22;57248;47.320;15.998;2023-11-22T10:08:18;14.35;54.74
69938;DHT22;57248;47.320;15.998;2023-11-22T10:10:51;15.51;53.43
69938;DHT22;57248;47.320;15.998;2023-11-22T10:13:23;14.66;53.76
69938;DHT22;57248;47.320;15.998;2023-11-22T10:16:09;16.07;52.22
69938;DHT22;57248;47.320;15.998;2023-11-22T10:18:42;16.28;50.81
69938;DHT22;57248;47.320;15.998;2023-11-22T10:21:28;16.34;50.64
69938;DHT22;57248;47.320;15.998;2023-11-22T10:24:03;16.12;49.90
69938;DHT22;57248;47.320;15.998;2023-11-22T10:26:42;17.71;48.84
69938;DHT22;57248;47.320;15.998;2023-11-22T10:29:14;18.00;48.62
69938;DHT22;57248;47.320;15.998;2023-11-22T10:31:46;17.73;48.15
69938;DHT22;57248;47.320;15.998;2023-11-22T10:34:20;17.67;47.94
69938;DHT22;57248;47.320;15.998;2023-11-22T10:36:52;17.40;46.21
69938;DHT22;57248;47.320;15.998;2023-11-22T10:39:26;17.15;47.24
69938;DHT22;57248;47.320;15.998;2023-11-22T10:41:59;16.89;46.95
69938;DHT22;57248;47.320;15.998;2023-11-22T10:44:33;17.27;46.89
69938;DHT22;57248;47.320;15.998;2023-11-22T10:47:08;17.42;47.35
69938;DHT22;57248;47.320;15.998;2023-11-22T10:49:34;18.21;45.13
69938;DHT22;57248;47.320;15.998;2023-11-22T10:52:08;19.02;46.00
69938;DHT22;57248;47.320;15.998;2023-11-22T10:54:48;18.69;45.69
69938;DHT22;57248;47.320;15.998;2023-11-22T10:57:22;18.94;44.58
69938;DHT22;57248;47.320;15.998;2023-11-22T11:00:02;18.53;45.64
69938;DHT22;57248;47.320;15.998;2023-11-22T11:02:57;17.77;45.96
69938;DHT22;57248;47.320;15.998;2023-11-22T11:05:39;17.95;45.65
69938;DHT22;57248;47.320;15.998;2023-11-22T11:08:14;18.29;44.46
69938;DHT22;57248;47.320;15.998;2023-11-22T11:10:48;17.66;45.83
69938;DHT22;57248;47.320;15.998;2023-11-22T11:13:21;18.16;46.05
69938;DHT22;57248;47.320;15.998;2023-11-22T11:15:53;16.96;47.00
69938;DHT22;57248;47.320;15.998;2023-11-22T11:18:26;18.09;45.49
69938;DHT22;57248;47.320;15.998;2023-11-22T11:21:07;19.00;45.95
69938;DHT22;57248;47.320;15.998;2023-11-22T11:23:40;19.00;43.39
69938;DHT22;57248;47.320;15.998;2023-11-22T11:26:20;18.35;45.21
69938;DHT22;57248;47.320;15.998;2023-11-22T11:28:55;18.84;43.26
69938;DHT22;57248;47.320;15.998;2023-11-22T11:31:21;18.82;44.47
69938;DHT22;57248;47.320;15.998;2023-11-22T11:33:55;18.79;44.42
69938;DHT22;57248;47.320;15.998;2023-11-22T11:36:31;19.87;42.64
69938;DHT22;57248;47.320;15.998;2023-11-22T11:39:07;18.12;44.94
69938;DHT22;57248;47.320;15.998;2023-11-22T11:41:47;18.57;44.43
69938;DHT22;57248;47.320;15.998;2023-11-22T11:44:19;18.69;43.98
69938;DHT22;57248;47.320;15.998;2023-11-22T11:47:08;19.45;48.82
69938;DHT22;57248;47.320;15.998;2023-11-22T11:49:42;19.31;42.66
69938;DHT22;57248;47.320;15.998;2023-11-22T11:52:14;17.43;45.23
69938;DHT22;57248;47.320;15.998;2023-11-22T11:54:48;17.83;45.04
69938;DHT22;57248;47.320;15.998;2023-11-22T11:57:32;18.48;44.40
69938;DHT22;57248;47.320;15.998;2023-11-22T12:00:04;17.54;44.98
69938;DHT22;57248;47.320;15.998;2023-11-22T12:02:37;17.93;45.08
69938;DHT22;57248;47.320;15.998;2023-11-22T12:05:09;18.26;44.79
69938;DHT22;57248;47.320;15.998;2023-11-22T12:07:42;18.32;42.71
69938;DHT22;57248;47.320;15.998;2023-11-22T12:10:14;17.64;44.45
69938;DHT22;57248;47.320;15.998;2023-11-22T12:12:48;18.11;44.56
69938;DHT22;57248;47.320;15.998;2023-11-22T12:15:21;16.34;46.53
69938;DHT22;57248;47.320;15.998;2023-11-22T12:17:54;16.89;45.35
69938;DHT22;57248;47.320;15.998;2023-11-22T12:20:28;18.65;43.93
69938;DHT22;57248;47.320;15.998;2023-11-22T12:23:10;17.80;44.88
69938;DHT22;57248;47.320;15.998;2023-11-22T12:25:43;19.38;43.67
69938;DHT22;57248;47.320;15.998;2023-11-22T12:28:18;18.74;44.38
69938;DHT22;57248;47.320;15.998;2023-11-22T12:30:50;17.77;44.65
69938;DHT22;57248;47.320;15.998;2023-11-22T12:33:23;16.75;47.85
69938;DHT22;57248;47.320;15.998;2023-11-22T12:36:00;17.33;44.26
69938;DHT22;57248;47.320;15.998;2023-11-22T12:38:34;17.73;44.14
69938;DHT22;57248;47.320;15.998;2023-11-22T12:41:06;16.92;46.10
69938;DHT22;57248;47.320;15.998;2023-11-22T12:43:38;17.54;46.14
69938;DHT22;57248;47.320;15.998;2023-11-22T12:46:12;16.17;47.57
69938;DHT22;57248;47.320;15.998;2023-11-22T12:48:48;15.07;48.58
69938;DHT22;57248;47.320;15.998;2023-11-22T12:51:21;15.57;47.92
69938;DHT22;57248;47.320;15.998;2023-11-22T12:53:59;16.16;46.96
69938;DHT22;57248;47.320;15.998;2023-11-22T12:56:31;15.85;49.05
69938;DHT22;57248;47.320;15.998;2023-11-22T12:59:03;13.67;51.49
69938;DHT22;57248;47.320;15.998;2023-11-22T13:01:29;13.90;52.16
69938;DHT22;57248;47.320;15.998;2023-11-22T13:04:01;13.56;52.75
69938;DHT22;57248;47.320;15.998;2023-11-22T13:06:33;13.40;54.12
69938;DHT22;57248;47.320;15.998;2023-11-22T13:09:05;13.18;53.33
69938;DHT22;57248;47.320;15.998;2023-11-22T13:11:38;12.82;55.29
69938;DHT22;57248;47.320;15.998;2023-11-22T13:14:10;13.51;53.90
69938;DHT22;57248;47.320;15.998;2023-11-22T13:16:45;13.44;54.18
69938;DHT22;57248;47.320;15.998;2023-11-22T13:19:17;12.98;55.05
69938;DHT22;57248;47.320;15.998;2023-11-22T13:21:50;13.30;55.37
69938;DHT22;57248;47.320;15.998;2023-11-22T13:24:36;13.78;54.59
69938;DHT22;57248;47.320;15.998;2023-11-22T13:27:11;13.36;54.07
69938;DHT22;57248;47.320;15.998;2023-11-22T13:29:43;12.65;55.40
69938;DHT22;57248;47.320;15.998;2023-11-22T13:32:16;12.27;56.71
69938;DHT22;57248;47.320;15.998;2023-11-22T13:34:49;11.65;59.15
69938;DHT22;57248;47.320;15.998;2023-11-22T13:37:25;12.03;57.71
69938;DHT22;57248;47.320;15.998;2023-11-22T13:40:00;12.14;56.90
69938;DHT22;57248;47.320;15.998;2023-11-22T13:42:33;11.97;56.94
69938;DHT22;57248;47.320;15.998;2023-11-22T13:45:05;11.32;57.71
69938;DHT22;57248;47.320;15.998;2023-11-22T13:47:33;11.93;57.86
69938;DHT22;57248;47.320;15.998;2023-11-22T13:50:05;12.31;57.05
69938;DHT22;57248;47.320;15.998;2023-11-22T13:52:38;11.57;58.97
69938;DHT22;57248;47.320;15.998;2023-11-22T13:55:10;11.43;58.23
69938;DHT22;57248;47.320;15.998;2023-11-22T13:57:44;10.46;60.12
69938;DHT22;57248;47.320;15.998;2023-11-22T14:00:17;10.33;60.79
69938;DHT22;57248;47.320;15.998;2023-11-22T14:02:54;10.04;61.58
69938;DHT22;57248;47.320;15.998;2023-11-22T14:05:28;9.27;62.54
69938;DHT22;57248;47.320;15.998;2023-11-22T14:08:00;8.86;63.53
69938;DHT22;57248;47.320;15.998;2023-11-22T14:10:26;8.81;64.36
69938;DHT22;57248;47.320;15.998;2023-11-22T14:12:58;8.85;64.95
69938;DHT22;57248;47.320;15.998;2023-11-22T14:15:32;8.74;64.17
69938;DHT22;57248;47.320;15.998;2023-11-22T14:18:06;8.16;65.78
69938;DHT22;57248;47.320;15.998;2023-11-22T14:20:38;8.19;66.17
69938;DHT22;57248;47.320;15.998;2023-11-22T14:23:10;8.43;65.98
69938;DHT22;57248;47.320;15.998;2023-11-22T14:25:49;7.94;66.98
69938;DHT22;57248;47.320;15.998;2023-11-22T14:28:22;8.13;66.67
69938;DHT22;57248;47.320;15.998;2023-11-22T14:30:54;7.61;67.76
69938;DHT22;57248;47.320;15.998;2023-11-22T14:33:26;7.45;68.63
69938;DHT22;57248;47.320;15.998;2023-11-22T14:35:51;7.52;68.48
69938;DHT22;57248;47.320;15.998;2023-11-22T14:38:24;7.72;68.18
69938;DHT22;57248;47.320;15.998;2023-11-22T14:40:51;7.65;68.85
69938;DHT22;57248;47.320;15.998;2023-11-22T14:43:23;7.58;68.14
69938;DHT22;57248;47.320;15.998;2023-11-22T14:45:55;7.38;69.16
69938;DHT22;57248;47.320;15.998;2023-11-22T14:48:28;7.55;68.42
69938;DHT22;57248;47.320;15.998;2023-11-22T14:51:02;7.34;68.71
69938;DHT22;57248;47.320;15.998;2023-11-22T14:53:34;7.54;69.51
69938;DHT22;57248;47.320;15.998;2023-11-22T14:56:06;7.08;69.98
69938;DHT22;57248;47.320;15.998;2023-11-22T14:58:39;6.86;70.22
69938;DHT22;57248;47.320;15.998;2023-11-22T15:01:11;6.28;71.25
69938;DHT22;57248;47.320;15.998;2023-11-22T15:03:44;6.42;71.99
69938;DHT22;57248;47.320;15.998;2023-11-22T15:06:16;6.25;71.71
69938;DHT22;57248;47.320;15.998;2023-11-22T15:08:48;5.93;72.80
69938;DHT22;57248;47.320;15.998;2023-11-22T15:11:20;5.66;73.12
69938;DHT22;57248;47.320;15.998;2023-11-22T15:13:45;5.86;73.61
69938;DHT22;57248;47.320;15.998;2023-11-22T15:16:17;5.69;73.16
69938;DHT22;57248;47.320;15.998;2023-11-22T15:18:51;5.59;73.11
69938;DHT22;57248;47.320;15.998;2023-11-22T15:21:31;5.69;72.96
69938;DHT22;57248;47.320;15.998;2023-11-22T15:24:04;5.60;73.17
69938;DHT22;57248;47.320;15.998;2023-11-22T15:26:37;5.22;74.95
69938;DHT22;57248;47.320;15.998;2023-11-22T15:29:09;5.33;74.46
69938;DHT22;57248;47.320;15.998;2023-11-22T15:31:41;4.84;75.30
69938;DHT22;57248;47.320;15.998;2023-11-22T15:34:15;5.73;78.08
69938;DHT22;57248;47.320;15.998;2023-11-22T15:36:47;5.57;75.59
69938;DHT22;57248;47.320;15.998;2023-11-22T15:39:19;5.07;76.27
69938;DHT22;57248;47.320;15.998;2023-11-22T15:41:54;5.02;75.70
69938;DHT22;57248;47.320;15.998;2023-11-22T15:44:20;4.84;76.01
69938;DHT22;57248;47.320;15.998;2023-11-22T15:46:54;4.60;77.57
69938;DHT22;57248;47.320;15.998;2023-11-22T15:49:26;4.47;77.29
69938;DHT22;57248;47.320;15.998;2023-11-22T15:51:58;4.50;78.05
69938;DHT22;57248;47.320;15.998;2023-11-22T15:54:32;4.49;77.79
69938;DHT22;57248;47.320;15.998;2023-11-22T15:57:05;4.32;77.80
69938;DHT22;57248;47.320;15.998;2023-11-22T15:59:38;4.32;77.54
69938;DHT22;57248;47.320;15.998;2023-11-22T16:02:11;4.29;77.42